Time;durP1;ratioP1;P1;durP2;ratioP2;P2;SDS_P1;SDS_P2;PMS_P1;PMS_P2;Temp;Humidity;BMP_temperature;BMP_pressure;BME280_temperature;BME280_humidity;BME280_pressure;Samples;Min_cycle;Max_cycle;Signal;HPM_P1;HPM_P2
2022/10/31 00:01:14;;;;;;;;;;;19.00;99.90;;;;;;5051038;28;19920;-24
2022/10/31 00:03:40;;;;;;;;;;;19.10;99.90;;;;;;5054717;28;19948;-24
2022/10/31 00:06:05;;;;;;;;;;;19.00;99.90;;;;;;5055448;28;19970;-24
2022/10/31 00:08:31;;;;;;;;;;;19.00;99.90;;;;;;5054758;28;20345;-23
2022/10/31 00:10:56;;;;;;;;;;;19.00;99.90;;;;;;5059284;28;19909;-24
2022/10/31 00:13:22;;;;;;;;;;;19.10;99.90;;;;;;5057130;28;19909;-24
2022/10/31 00:15:47;;;;;;;;;;;19.00;99.90;;;;;;5059012;28;19923;-24
2022/10/31 00:18:13;;;;;;;;;;;19.00;99.90;;;;;;5054987;28;20054;-24
2022/10/31 00:20:38;;;;;;;;;;;19.00;99.90;;;;;;5054978;28;20271;-24
2022/10/31 00:23:04;;;;;;;;;;;19.00;99.90;;;;;;5052875;28;19909;-24
2022/10/31 00:25:33;;;;;;;;;;;19.00;99.90;;;;;;5055066;28;20007;-24
2022/10/31 00:27:59;;;;;;;;;;;19.00;99.90;;;;;;5054584;28;19909;-24
2022/10/31 00:30:24;;;;;;;;;;;19.00;99.90;;;;;;5054850;28;19913;-24
2022/10/31 00:32:50;;;;;;;;;;;19.00;99.90;;;;;;5054137;28;19913;-24
2022/10/31 00:35:15;;;;;;;;;;;19.00;99.90;;;;;;5055058;28;19909;-24
2022/10/31 00:37:41;;;;;;;;;;;19.00;99.90;;;;;;5054142;28;19955;-24
2022/10/31 00:40:07;;;;;;;;;;;19.00;99.90;;;;;;5054555;28;19963;-24
2022/10/31 00:42:32;;;;;;;;;;;19.00;99.90;;;;;;5053857;28;19974;-24
2022/10/31 00:44:58;;;;;;;;;;;19.00;99.90;;;;;;5054592;28;19913;-24
2022/10/31 00:47:23;;;;;;;;;;;19.00;99.90;;;;;;5054133;28;20054;-24
2022/10/31 00:49:49;;;;;;;;;;;19.00;99.90;;;;;;5054271;28;19917;-24
2022/10/31 00:52:14;;;;;;;;;;;19.00;99.90;;;;;;5054570;28;19916;-24
2022/10/31 00:54:40;;;;;;;;;;;19.00;99.90;;;;;;5054040;28;19913;-24
2022/10/31 00:57:05;;;;;;;;;;;19.00;99.90;;;;;;5054256;28;20426;-24
2022/10/31 00:59:31;;;;;;;;;;;18.90;99.90;;;;;;5054524;28;20377;-24
2022/10/31 01:01:56;;;;;;;;;;;19.00;99.90;;;;;;5055154;28;20067;-24
2022/10/31 01:04:22;;;;;;;;;;;19.00;99.90;;;;;;5054025;28;19913;-24
2022/10/31 01:06:47;;;;;;;;;;;18.90;99.90;;;;;;5054503;28;19920;-24
2022/10/31 01:09:13;;;;;;;;;;;18.90;99.90;;;;;;5054143;28;19913;-24
2022/10/31 01:11:38;;;;;;;;;;;18.90;99.90;;;;;;5054383;28;19952;-24
2022/10/31 01:14:04;;;;;;;;;;;18.90;99.90;;;;;;5052572;28;20363;-24
2022/10/31 01:16:29;;;;;;;;;;;18.90;99.90;;;;;;5055118;28;19912;-24
2022/10/31 01:18:55;;;;;;;;;;;18.90;99.90;;;;;;5054343;28;20354;-24
2022/10/31 01:21:27;;;;;;;;;;;18.90;99.90;;;;;;5054368;28;19919;-24
2022/10/31 01:23:53;;;;;;;;;;;18.90;99.90;;;;;;5053713;28;19967;-24
2022/10/31 01:26:20;;;;;;;;;;;18.90;99.90;;;;;;5053871;28;20004;-24
2022/10/31 01:28:53;;;;;;;;;;;18.90;99.90;;;;;;5054564;28;20389;-24
2022/10/31 01:31:20;;;;;;;;;;;18.90;99.90;;;;;;5053874;28;19913;-24
2022/10/31 01:33:45;;;;;;;;;;;18.90;99.90;;;;;;5053259;28;19935;-24
2022/10/31 01:36:22;;;;;;;;;;;18.90;99.90;;;;;;5053750;28;20275;-24
2022/10/31 01:38:48;;;;;;;;;;;18.90;99.90;;;;;;5053192;28;19928;-24
2022/10/31 01:41:15;;;;;;;;;;;18.90;99.90;;;;;;5053798;28;19917;-24
2022/10/31 01:43:46;;;;;;;;;;;18.90;99.90;;;;;;5052628;28;19919;-24
2022/10/31 01:46:12;;;;;;;;;;;18.80;99.90;;;;;;5053392;28;19915;-24
2022/10/31 01:48:39;;;;;;;;;;;18.80;99.90;;;;;;5053001;28;20310;-24
2022/10/31 01:51:05;;;;;;;;;;;18.80;99.90;;;;;;5053823;28;19913;-24
2022/10/31 01:53:31;;;;;;;;;;;18.80;99.90;;;;;;5053997;28;20018;-24
2022/10/31 01:55:57;;;;;;;;;;;18.80;99.90;;;;;;5053192;28;20005;-24
2022/10/31 01:58:24;;;;;;;;;;;18.80;99.90;;;;;;5053212;28;19916;-24
2022/10/31 02:00:52;;;;;;;;;;;18.80;99.90;;;;;;5053280;28;19919;-24
2022/10/31 02:03:19;;;;;;;;;;;18.80;99.90;;;;;;5052879;28;19924;-24
2022/10/31 02:05:45;;;;;;;;;;;18.80;99.90;;;;;;5052403;28;20328;-24
2022/10/31 02:08:15;;;;;;;;;;;18.80;99.90;;;;;;5052906;28;19912;-24
2022/10/31 02:10:42;;;;;;;;;;;18.80;99.90;;;;;;5052907;28;19920;-24
2022/10/31 02:13:08;;;;;;;;;;;18.80;99.90;;;;;;5052484;28;19974;-24
2022/10/31 02:15:34;;;;;;;;;;;18.80;99.90;;;;;;5053420;28;19909;-24
2022/10/31 02:18:00;;;;;;;;;;;18.70;99.90;;;;;;5053103;28;19912;-24
2022/10/31 02:20:29;;;;;;;;;;;18.80;99.90;;;;;;5052836;28;19967;-24
2022/10/31 02:23:01;;;;;;;;;;;18.70;99.90;;;;;;5052513;28;20234;-24
2022/10/31 02:25:26;;;;;;;;;;;18.70;99.90;;;;;;5052577;28;19919;-24
2022/10/31 02:27:52;;;;;;;;;;;18.70;99.90;;;;;;5052513;28;19913;-23
2022/10/31 02:30:19;;;;;;;;;;;18.70;99.90;;;;;;5052544;28;19913;-24
2022/10/31 02:33:00;;;;;;;;;;;18.70;99.90;;;;;;5050987;28;19952;-24
2022/10/31 02:35:29;;;;;;;;;;;18.70;99.90;;;;;;5052723;28;20337;-24
2022/10/31 02:38:13;;;;;;;;;;;18.70;99.90;;;;;;5052074;28;20298;-24
2022/10/31 02:40:47;;;;;;;;;;;18.70;99.90;;;;;;5052133;28;19913;-24
2022/10/31 02:43:17;;;;;;;;;;;18.70;99.90;;;;;;5051804;28;19923;-24
2022/10/31 02:46:05;;;;;;;;;;;18.70;99.90;;;;;;5053997;28;19913;-24
2022/10/31 02:48:35;;;;;;;;;;;18.70;99.90;;;;;;5052327;28;19916;-24
2022/10/31 02:51:01;;;;;;;;;;;18.70;99.90;;;;;;5052181;28;19931;-24
2022/10/31 02:53:31;;;;;;;;;;;18.70;99.90;;;;;;5051750;28;19909;-24
2022/10/31 02:55:58;;;;;;;;;;;18.70;99.90;;;;;;5053402;28;19909;-24
2022/10/31 02:58:26;;;;;;;;;;;18.60;99.90;;;;;;5052346;28;19909;-24
2022/10/31 03:01:01;;;;;;;;;;;18.70;99.90;;;;;;5052189;28;20183;-24
2022/10/31 03:03:33;;;;;;;;;;;18.60;99.90;;;;;;5051441;28;19909;-24
2022/10/31 03:06:11;;;;;;;;;;;18.60;99.90;;;;;;5052340;28;19974;-24
2022/10/31 03:08:39;;;;;;;;;;;18.60;99.90;;;;;;5052363;28;19916;-24
2022/10/31 03:11:06;;;;;;;;;;;18.60;99.90;;;;;;5052224;28;20381;-24
2022/10/31 03:13:34;;;;;;;;;;;18.60;99.90;;;;;;5051933;28;19909;-24
2022/10/31 03:16:13;;;;;;;;;;;18.60;99.90;;;;;;5052851;28;19920;-24
2022/10/31 03:18:57;;;;;;;;;;;18.60;99.90;;;;;;5052172;28;19916;-23
2022/10/31 03:21:28;;;;;;;;;;;18.60;99.90;;;;;;5052326;28;19965;-24
2022/10/31 03:23:54;;;;;;;;;;;18.60;99.90;;;;;;5051700;28;19931;-24
2022/10/31 03:26:21;;;;;;;;;;;18.60;99.90;;;;;;5052640;28;19916;-24
2022/10/31 03:28:51;;;;;;;;;;;18.60;99.90;;;;;;5052228;28;19909;-24
2022/10/31 03:31:18;;;;;;;;;;;18.60;99.90;;;;;;5050334;28;19909;-24
2022/10/31 03:33:44;;;;;;;;;;;18.50;99.90;;;;;;5051219;28;19909;-24
2022/10/31 03:36:11;;;;;;;;;;;18.60;99.90;;;;;;5051489;28;20475;-24
2022/10/31 03:38:38;;;;;;;;;;;18.50;99.90;;;;;;5052101;28;19917;-24
2022/10/31 03:41:05;;;;;;;;;;;18.50;99.90;;;;;;5052072;28;19999;-24
2022/10/31 03:43:32;;;;;;;;;;;18.50;99.90;;;;;;5049406;28;19913;-24
2022/10/31 03:45:58;;;;;;;;;;;18.50;99.90;;;;;;5051475;28;20297;-24
2022/10/31 03:48:24;;;;;;;;;;;18.50;99.90;;;;;;5051798;28;19964;-24
2022/10/31 03:50:50;;;;;;;;;;;18.50;99.90;;;;;;5051563;28;19909;-24
2022/10/31 03:53:30;;;;;;;;;;;18.50;99.90;;;;;;5066375;28;19916;-24
2022/10/31 03:55:59;;;;;;;;;;;18.50;99.90;;;;;;5051573;28;19924;-24
2022/10/31 03:58:27;;;;;;;;;;;18.50;99.90;;;;;;5051159;28;19913;-24
2022/10/31 04:00:54;;;;;;;;;;;18.50;99.90;;;;;;5051166;28;19909;-24
2022/10/31 04:03:25;;;;;;;;;;;18.50;99.90;;;;;;5049325;28;20008;-23
2022/10/31 04:05:52;;;;;;;;;;;18.50;99.90;;;;;;5052443;28;20273;-24
2022/10/31 04:08:20;;;;;;;;;;;18.50;99.90;;;;;;5051269;28;19959;-24
2022/10/31 04:10:49;;;;;;;;;;;18.50;99.90;;;;;;5051034;28;19915;-24
2022/10/31 04:13:17;;;;;;;;;;;18.50;99.90;;;;;;5050518;28;19916;-24
2022/10/31 04:15:43;;;;;;;;;;;18.50;99.90;;;;;;5051035;28;19994;-24
2022/10/31 04:18:09;;;;;;;;;;;18.40;99.90;;;;;;5050968;28;20377;-24
2022/10/31 04:20:36;;;;;;;;;;;18.40;99.90;;;;;;5049923;28;20393;-24
2022/10/31 04:23:02;;;;;;;;;;;18.40;99.90;;;;;;5050652;28;20377;-23
2022/10/31 04:25:28;;;;;;;;;;;18.40;99.90;;;;;;5050943;28;19924;-24
2022/10/31 04:27:54;;;;;;;;;;;18.40;99.90;;;;;;5050644;28;20389;-24
2022/10/31 04:30:19;;;;;;;;;;;18.40;99.90;;;;;;5050739;28;19909;-24
2022/10/31 04:32:45;;;;;;;;;;;18.40;99.90;;;;;;5050723;28;19916;-24
2022/10/31 04:35:10;;;;;;;;;;;18.40;99.90;;;;;;5066377;28;20178;-24
2022/10/31 04:37:36;;;;;;;;;;;18.40;99.90;;;;;;5051332;28;19920;-24
2022/10/31 04:40:02;;;;;;;;;;;18.40;99.90;;;;;;5051094;28;20331;-24
2022/10/31 04:42:30;;;;;;;;;;;18.40;99.90;;;;;;5050392;28;19917;-23
2022/10/31 04:44:56;;;;;;;;;;;18.40;99.90;;;;;;5050864;28;19909;-23
2022/10/31 04:47:21;;;;;;;;;;;18.40;99.90;;;;;;5052874;28;19915;-24
2022/10/31 04:49:47;;;;;;;;;;;18.30;99.90;;;;;;5059799;28;19921;-24
2022/10/31 04:52:13;;;;;;;;;;;18.30;99.90;;;;;;5058285;28;19915;-24
2022/10/31 04:54:39;;;;;;;;;;;18.30;99.90;;;;;;5057120;28;19909;-24
2022/10/31 04:57:04;;;;;;;;;;;18.30;99.90;;;;;;5054782;28;19913;-24
2022/10/31 04:59:30;;;;;;;;;;;18.30;99.90;;;;;;5055095;28;20408;-24
2022/10/31 05:01:55;;;;;;;;;;;18.30;99.90;;;;;;5054613;28;20370;-24
2022/10/31 05:04:21;;;;;;;;;;;18.30;99.90;;;;;;5053577;28;19909;-24
2022/10/31 05:06:47;;;;;;;;;;;18.30;99.90;;;;;;5054182;28;20354;-24
2022/10/31 05:09:12;;;;;;;;;;;18.30;99.90;;;;;;5054243;28;19916;-24
2022/10/31 05:11:38;;;;;;;;;;;18.30;99.90;;;;;;5055130;28;19921;-24
2022/10/31 05:14:03;;;;;;;;;;;18.30;99.90;;;;;;5054763;28;19948;-24
2022/10/31 05:16:29;;;;;;;;;;;18.30;99.90;;;;;;5052699;28;19915;-24
2022/10/31 05:18:55;;;;;;;;;;;18.30;99.90;;;;;;5054765;28;19909;-24
2022/10/31 05:21:20;;;;;;;;;;;18.20;99.90;;;;;;5054065;28;20347;-24
2022/10/31 05:23:46;;;;;;;;;;;18.20;99.90;;;;;;5054246;28;19912;-24
2022/10/31 05:26:11;;;;;;;;;;;18.20;99.90;;;;;;5053844;28;19912;-24
2022/10/31 05:28:37;;;;;;;;;;;18.20;99.90;;;;;;5054963;28;20326;-24
2022/10/31 05:31:03;;;;;;;;;;;18.20;99.90;;;;;;5054012;28;19948;-24
2022/10/31 05:33:28;;;;;;;;;;;18.20;99.90;;;;;;5053211;28;20286;-24
2022/10/31 05:35:54;;;;;;;;;;;18.20;99.90;;;;;;5054145;28;20048;-24
2022/10/31 05:38:19;;;;;;;;;;;18.20;99.90;;;;;;5053547;28;20436;-24
2022/10/31 05:40:45;;;;;;;;;;;18.20;99.90;;;;;;5053878;28;19908;-24
2022/10/31 05:43:10;;;;;;;;;;;18.20;99.90;;;;;;5053552;28;19913;-24
2022/10/31 05:45:36;;;;;;;;;;;18.20;99.90;;;;;;5053779;28;19909;-24
2022/10/31 05:48:02;;;;;;;;;;;18.20;99.90;;;;;;5053305;28;19932;-24
2022/10/31 05:50:29;;;;;;;;;;;18.20;99.90;;;;;;5054301;28;19908;-24
2022/10/31 05:52:58;;;;;;;;;;;18.20;99.90;;;;;;5053156;28;20223;-24
2022/10/31 05:55:25;;;;;;;;;;;18.20;99.90;;;;;;5054328;28;19908;-24
2022/10/31 05:57:51;;;;;;;;;;;18.20;99.90;;;;;;5053200;28;19916;-24
2022/10/31 06:00:17;;;;;;;;;;;18.20;99.90;;;;;;5052463;28;19913;-24
2022/10/31 06:02:43;;;;;;;;;;;18.10;99.90;;;;;;5052469;28;19913;-24
2022/10/31 06:05:08;;;;;;;;;;;18.20;99.90;;;;;;5053126;28;19920;-24
2022/10/31 06:07:34;;;;;;;;;;;18.10;99.90;;;;;;5053074;28;20435;-24
2022/10/31 06:10:00;;;;;;;;;;;18.10;99.90;;;;;;5052846;28;19962;-24
2022/10/31 06:12:26;;;;;;;;;;;18.10;99.90;;;;;;5052878;28;20396;-24
2022/10/31 06:14:51;;;;;;;;;;;18.10;99.90;;;;;;5052753;28;19988;-24
2022/10/31 06:17:17;;;;;;;;;;;18.10;99.90;;;;;;5052861;28;19916;-24
2022/10/31 06:19:42;;;;;;;;;;;18.10;99.90;;;;;;5052608;28;19908;-24
2022/10/31 06:22:08;;;;;;;;;;;18.10;99.90;;;;;;5052543;28;19921;-24
2022/10/31 06:24:33;;;;;;;;;;;18.10;99.90;;;;;;5052142;28;20164;-24
2022/10/31 06:26:59;;;;;;;;;;;18.00;99.90;;;;;;5052515;28;19996;-24
2022/10/31 06:29:24;;;;;;;;;;;18.00;99.90;;;;;;5051165;28;19944;-24
2022/10/31 06:31:52;;;;;;;;;;;18.00;99.90;;;;;;5052476;28;20574;-24
2022/10/31 06:34:18;;;;;;;;;;;18.00;99.90;;;;;;5052278;28;20389;-24
2022/10/31 06:36:45;;;;;;;;;;;18.00;99.90;;;;;;5052321;28;19912;-24
2022/10/31 06:39:10;;;;;;;;;;;18.00;99.90;;;;;;5052384;28;19920;-24
2022/10/31 06:41:36;;;;;;;;;;;18.00;99.90;;;;;;5052337;28;19913;-24
2022/10/31 06:44:02;;;;;;;;;;;18.00;99.90;;;;;;5052088;28;20365;-24
2022/10/31 06:46:27;;;;;;;;;;;18.00;99.90;;;;;;5052299;28;20003;-24
2022/10/31 06:48:53;;;;;;;;;;;18.00;99.90;;;;;;5052259;28;19909;-24
2022/10/31 06:51:18;;;;;;;;;;;18.00;99.90;;;;;;5052189;28;19920;-24
2022/10/31 06:53:43;;;;;;;;;;;18.00;99.90;;;;;;5051571;28;19909;-24
2022/10/31 06:56:09;;;;;;;;;;;18.00;99.90;;;;;;5052118;28;19931;-24
2022/10/31 06:58:35;;;;;;;;;;;18.00;99.90;;;;;;5051871;28;19963;-24
2022/10/31 07:01:00;;;;;;;;;;;18.00;99.90;;;;;;5051657;28;19909;-24
2022/10/31 07:03:25;;;;;;;;;;;17.90;99.90;;;;;;5051550;28;20016;-24
2022/10/31 07:05:51;;;;;;;;;;;18.00;99.90;;;;;;5051918;28;19919;-24
2022/10/31 07:08:17;;;;;;;;;;;17.90;99.90;;;;;;5051578;28;19912;-24
2022/10/31 07:10:42;;;;;;;;;;;17.90;99.90;;;;;;5051164;28;19913;-24
2022/10/31 07:13:13;;;;;;;;;;;18.00;99.90;;;;;;5050849;28;19917;-24
2022/10/31 07:15:39;;;;;;;;;;;17.90;99.90;;;;;;5051553;28;19917;-24
2022/10/31 07:18:05;;;;;;;;;;;17.90;99.90;;;;;;5051664;28;19908;-24
2022/10/31 07:20:31;;;;;;;;;;;18.00;99.90;;;;;;5051535;28;19909;-24
2022/10/31 07:22:57;;;;;;;;;;;17.90;99.90;;;;;;5051335;28;19995;-24
2022/10/31 07:25:23;;;;;;;;;;;17.90;99.90;;;;;;5051463;28;19920;-24
2022/10/31 07:27:48;;;;;;;;;;;17.90;99.90;;;;;;5051130;28;20389;-24
2022/10/31 07:30:14;;;;;;;;;;;17.90;99.90;;;;;;5051361;28;20411;-24
2022/10/31 07:32:40;;;;;;;;;;;17.90;99.90;;;;;;5050913;28;19909;-24
2022/10/31 07:35:07;;;;;;;;;;;17.90;99.90;;;;;;5051316;28;19916;-24
2022/10/31 07:37:33;;;;;;;;;;;17.90;99.90;;;;;;5051430;28;20388;-24
2022/10/31 07:39:58;;;;;;;;;;;17.90;99.90;;;;;;5051415;28;19946;-24
2022/10/31 07:42:24;;;;;;;;;;;17.90;99.90;;;;;;5050978;28;19927;-24
2022/10/31 07:44:49;;;;;;;;;;;17.90;99.90;;;;;;5051221;28;19944;-24
2022/10/31 07:47:15;;;;;;;;;;;17.90;99.90;;;;;;5051828;28;19912;-24
2022/10/31 07:49:40;;;;;;;;;;;17.90;99.90;;;;;;5051230;28;19948;-24
2022/10/31 07:52:06;;;;;;;;;;;18.00;99.90;;;;;;5051194;28;19908;-24
2022/10/31 07:54:31;;;;;;;;;;;18.00;99.90;;;;;;5050808;28;19962;-24
2022/10/31 07:56:57;;;;;;;;;;;18.00;99.90;;;;;;5051068;28;19962;-24
2022/10/31 07:59:22;;;;;;;;;;;18.00;99.90;;;;;;5050904;28;19947;-24
2022/10/31 08:01:48;;;;;;;;;;;18.00;99.90;;;;;;5051216;28;19919;-24
2022/10/31 08:04:13;;;;;;;;;;;18.00;99.90;;;;;;5050807;28;20282;-24
2022/10/31 08:06:39;;;;;;;;;;;18.00;99.90;;;;;;5051258;28;19909;-24
2022/10/31 08:09:04;;;;;;;;;;;18.00;99.90;;;;;;5051004;28;19916;-24
2022/10/31 08:11:30;;;;;;;;;;;18.00;99.90;;;;;;5050902;28;20439;-24
2022/10/31 08:13:55;;;;;;;;;;;18.10;99.90;;;;;;5049463;28;19920;-24
2022/10/31 08:16:21;;;;;;;;;;;18.10;99.90;;;;;;5050988;28;19966;-24
2022/10/31 08:18:47;;;;;;;;;;;18.10;99.90;;;;;;5051025;28;19913;-24
2022/10/31 08:21:13;;;;;;;;;;;18.10;99.90;;;;;;5050729;28;19916;-24
2022/10/31 08:23:38;;;;;;;;;;;18.10;99.90;;;;;;5053271;28;19924;-24
2022/10/31 08:26:05;;;;;;;;;;;18.10;99.90;;;;;;5053817;28;19908;-24
2022/10/31 08:28:31;;;;;;;;;;;18.10;99.90;;;;;;5054656;28;19913;-24
2022/10/31 08:30:57;;;;;;;;;;;18.10;99.90;;;;;;5054760;28;20445;-24
2022/10/31 08:33:23;;;;;;;;;;;18.10;99.90;;;;;;5054263;28;19954;-24
2022/10/31 08:35:49;;;;;;;;;;;18.10;99.90;;;;;;5054647;28;19913;-24
2022/10/31 08:38:15;;;;;;;;;;;18.10;99.90;;;;;;5054691;28;19955;-24
2022/10/31 08:40:40;;;;;;;;;;;18.10;99.90;;;;;;5054601;28;19909;-24
2022/10/31 08:43:13;;;;;;;;;;;18.10;99.90;;;;;;5053950;28;19913;-24
2022/10/31 08:45:38;;;;;;;;;;;18.20;99.90;;;;;;5054864;28;20370;-24
2022/10/31 08:48:05;;;;;;;;;;;18.20;99.90;;;;;;5054499;28;19909;-24
2022/10/31 08:50:32;;;;;;;;;;;18.20;99.90;;;;;;5054373;28;20408;-24
2022/10/31 08:53:01;;;;;;;;;;;18.20;99.90;;;;;;5054058;28;19916;-24
2022/10/31 08:55:27;;;;;;;;;;;18.20;99.90;;;;;;5054190;28;19909;-24
2022/10/31 08:57:59;;;;;;;;;;;18.20;99.90;;;;;;5053539;28;19916;-24
2022/10/31 09:00:24;;;;;;;;;;;18.30;99.90;;;;;;5069552;28;19913;-24
2022/10/31 09:03:08;;;;;;;;;;;18.30;99.90;;;;;;5053281;28;20362;-24
2022/10/31 09:05:34;;;;;;;;;;;18.30;99.90;;;;;;5054186;28;19913;-24
2022/10/31 09:08:01;;;;;;;;;;;18.30;99.90;;;;;;5053825;28;20382;-24
2022/10/31 09:10:27;;;;;;;;;;;18.30;99.90;;;;;;5053826;28;19920;-24
2022/10/31 09:12:56;;;;;;;;;;;18.30;99.90;;;;;;5053063;28;19908;-24
2022/10/31 09:15:22;;;;;;;;;;;18.30;99.90;;;;;;5053641;28;20306;-24
2022/10/31 09:17:48;;;;;;;;;;;18.30;99.90;;;;;;5053482;28;19915;-24
2022/10/31 09:20:13;;;;;;;;;;;18.30;99.90;;;;;;5053702;28;19909;-24
2022/10/31 09:22:39;;;;;;;;;;;18.30;99.90;;;;;;5052962;28;19951;-23
2022/10/31 09:25:04;;;;;;;;;;;18.30;99.90;;;;;;5053607;28;19913;-24
2022/10/31 09:27:30;;;;;;;;;;;18.30;99.90;;;;;;5053628;28;19913;-24
2022/10/31 09:29:55;;;;;;;;;;;18.40;99.90;;;;;;5053492;28;19944;-24
2022/10/31 09:32:21;;;;;;;;;;;18.40;99.90;;;;;;5053130;28;19915;-24
2022/10/31 09:34:46;;;;;;;;;;;18.40;99.90;;;;;;5052451;28;19913;-24
2022/10/31 09:37:12;;;;;;;;;;;18.40;99.90;;;;;;5052958;28;19956;-24
2022/10/31 09:39:37;;;;;;;;;;;18.40;99.90;;;;;;5053230;28;20015;-24
2022/10/31 09:42:22;;;;;;;;;;;18.40;99.90;;;;;;5053362;28;19913;-24
2022/10/31 09:44:53;;;;;;;;;;;18.40;99.90;;;;;;5052897;28;20022;-24
2022/10/31 09:47:31;;;;;;;;;;;18.40;99.90;;;;;;5053081;28;20397;-24
2022/10/31 09:50:04;;;;;;;;;;;18.40;99.90;;;;;;5051943;28;19919;-24
2022/10/31 09:52:32;;;;;;;;;;;18.40;99.90;;;;;;5052754;28;19908;-24
2022/10/31 09:55:00;;;;;;;;;;;18.40;99.90;;;;;;5053139;28;20370;-24
2022/10/31 09:57:28;;;;;;;;;;;18.40;99.90;;;;;;5053019;28;19916;-24
2022/10/31 09:59:54;;;;;;;;;;;18.40;99.90;;;;;;5051608;28;20442;-24
2022/10/31 10:02:38;;;;;;;;;;;18.40;99.90;;;;;;5052761;28;20004;-24
2022/10/31 10:05:06;;;;;;;;;;;18.40;99.90;;;;;;5053023;28;19908;-24
2022/10/31 10:07:44;;;;;;;;;;;18.30;99.90;;;;;;5052785;28;19909;-24
2022/10/31 10:10:33;;;;;;;;;;;18.40;99.90;;;;;;5052829;28;19916;-24
2022/10/31 10:13:04;;;;;;;;;;;18.40;99.90;;;;;;5049207;28;19912;-24
2022/10/31 10:15:37;;;;;;;;;;;18.40;99.90;;;;;;5052842;28;19966;-24
2022/10/31 10:18:02;;;;;;;;;;;18.40;99.90;;;;;;5051298;28;20464;-24
2022/10/31 10:20:28;;;;;;;;;;;18.40;99.90;;;;;;5052575;28;19955;-24
2022/10/31 10:23:12;;;;;;;;;;;18.40;99.90;;;;;;5052116;28;19912;-24
2022/10/31 10:25:41;;;;;;;;;;;18.40;99.90;;;;;;5052622;28;19915;-24
2022/10/31 10:28:10;;;;;;;;;;;18.40;99.90;;;;;;5052390;28;19966;-24
2022/10/31 10:30:43;;;;;;;;;;;18.40;99.90;;;;;;5052920;28;19909;-24
2022/10/31 10:33:13;;;;;;;;;;;18.40;99.90;;;;;;5052281;28;19913;-24
2022/10/31 10:35:43;;;;;;;;;;;18.40;99.90;;;;;;5052369;28;19913;-24
2022/10/31 10:38:19;;;;;;;;;;;18.40;99.90;;;;;;5052085;28;19924;-24
2022/10/31 10:40:46;;;;;;;;;;;18.40;99.90;;;;;;5052212;28;19995;-24
2022/10/31 10:43:23;;;;;;;;;;;18.50;99.90;;;;;;5051736;28;19913;-24
2022/10/31 10:48:35;;;;;;;;;;;18.50;99.90;;;;;;5051946;28;19920;-24
2022/10/31 10:51:01;;;;;;;;;;;18.50;99.90;;;;;;5051938;28;19909;-24
2022/10/31 10:53:35;;;;;;;;;;;18.40;99.90;;;;;;5051475;28;20275;-24
2022/10/31 10:56:15;;;;;;;;;;;18.40;99.90;;;;;;5051759;28;19913;-24
2022/10/31 10:58:42;;;;;;;;;;;18.40;99.90;;;;;;5051445;28;19916;-24
2022/10/31 11:01:14;;;;;;;;;;;18.40;99.90;;;;;;5051301;28;20016;-24
2022/10/31 11:03:40;;;;;;;;;;;18.40;99.90;;;;;;5051022;28;19913;-24
2022/10/31 11:06:16;;;;;;;;;;;18.40;99.90;;;;;;5051211;28;20007;-24
2022/10/31 11:08:42;;;;;;;;;;;18.40;99.90;;;;;;5051514;28;19909;-24
2022/10/31 11:11:19;;;;;;;;;;;18.50;99.90;;;;;;5051540;28;19916;-24
2022/10/31 11:13:46;;;;;;;;;;;18.50;99.90;;;;;;5051287;28;19963;-24
2022/10/31 11:16:26;;;;;;;;;;;18.40;99.90;;;;;;5051649;28;19967;-24
2022/10/31 11:18:52;;;;;;;;;;;18.40;99.90;;;;;;5051910;28;19909;-24
2022/10/31 11:21:23;;;;;;;;;;;18.40;99.90;;;;;;5051519;28;19916;-24
2022/10/31 11:23:49;;;;;;;;;;;18.50;99.90;;;;;;5050988;28;20269;-24
2022/10/31 11:26:21;;;;;;;;;;;18.50;99.90;;;;;;5051546;28;19909;-24
2022/10/31 11:28:58;;;;;;;;;;;18.50;99.90;;;;;;5051434;28;19956;-24
2022/10/31 11:31:25;;;;;;;;;;;18.50;99.90;;;;;;5051606;28;19954;-24
2022/10/31 11:33:57;;;;;;;;;;;18.50;99.90;;;;;;5050853;28;20003;-24
2022/10/31 11:36:24;;;;;;;;;;;18.50;99.90;;;;;;5051181;28;19916;-24
2022/10/31 11:38:50;;;;;;;;;;;18.50;99.90;;;;;;5049924;28;19947;-24
2022/10/31 11:41:19;;;;;;;;;;;18.50;99.90;;;;;;5051203;28;19944;-24
2022/10/31 11:43:48;;;;;;;;;;;18.50;99.90;;;;;;5050791;28;20365;-24
2022/10/31 11:46:33;;;;;;;;;;;18.40;99.90;;;;;;5051611;28;19919;-24
2022/10/31 11:48:58;;;;;;;;;;;18.50;99.90;;;;;;5051385;28;19912;-24
2022/10/31 11:51:25;;;;;;;;;;;18.40;99.90;;;;;;5051177;28;20366;-24
2022/10/31 11:53:52;;;;;;;;;;;18.40;99.90;;;;;;5050782;28;19909;-24
2022/10/31 11:56:17;;;;;;;;;;;18.40;99.90;;;;;;5050892;28;19995;-24
2022/10/31 11:58:43;;;;;;;;;;;18.40;99.90;;;;;;5050358;28;20007;-24
2022/10/31 12:01:23;;;;;;;;;;;18.40;99.90;;;;;;5049394;28;19916;-24
2022/10/31 12:03:59;;;;;;;;;;;18.40;99.90;;;;;;5050822;28;19917;-24
2022/10/31 12:06:28;;;;;;;;;;;18.40;99.90;;;;;;5051028;28;19913;-24
2022/10/31 12:08:53;;;;;;;;;;;18.40;99.90;;;;;;5051556;28;19909;-24
2022/10/31 12:11:37;;;;;;;;;;;18.40;99.90;;;;;;5050974;28;20281;-24
2022/10/31 12:14:06;;;;;;;;;;;18.40;99.90;;;;;;5050583;28;20366;-24
2022/10/31 12:16:34;;;;;;;;;;;18.40;99.90;;;;;;5050974;28;19948;-24
2022/10/31 12:19:04;;;;;;;;;;;18.40;99.90;;;;;;5050790;28;20315;-24
2022/10/31 12:21:42;;;;;;;;;;;18.40;99.90;;;;;;5050890;28;19916;-24
2022/10/31 12:24:14;;;;;;;;;;;18.40;99.90;;;;;;5050383;28;19962;-24
2022/10/31 12:26:49;;;;;;;;;;;18.30;99.90;;;;;;5051015;28;19962;-24
2022/10/31 12:29:35;;;;;;;;;;;18.40;99.90;;;;;;5049486;28;20054;-24
2022/10/31 12:32:13;;;;;;;;;;;18.30;99.90;;;;;;5050396;28;20326;-24
2022/10/31 12:34:44;;;;;;;;;;;18.30;99.90;;;;;;5050209;28;19962;-24
2022/10/31 12:37:24;;;;;;;;;;;18.30;99.90;;;;;;5050523;28;20364;-24
2022/10/31 12:39:49;;;;;;;;;;;18.30;99.90;;;;;;5051053;28;19946;-24
2022/10/31 12:42:15;;;;;;;;;;;18.30;99.90;;;;;;5050528;28;19965;-24
2022/10/31 12:44:51;;;;;;;;;;;18.30;99.90;;;;;;5050197;28;20294;-24
2022/10/31 12:47:35;;;;;;;;;;;18.30;99.90;;;;;;5050445;28;19975;-24
2022/10/31 12:50:06;;;;;;;;;;;18.20;99.90;;;;;;5050572;28;19912;-24
2022/10/31 12:52:41;;;;;;;;;;;18.20;99.90;;;;;;5050067;28;19962;-24
2022/10/31 12:55:22;;;;;;;;;;;18.20;99.90;;;;;;5050420;28;19920;-24
2022/10/31 12:57:50;;;;;;;;;;;18.20;99.90;;;;;;5050630;28;19948;-24
2022/10/31 13:00:16;;;;;;;;;;;18.20;99.90;;;;;;5050481;28;19909;-24
2022/10/31 13:02:57;;;;;;;;;;;18.20;99.90;;;;;;5049977;28;19917;-24
2022/10/31 13:05:30;;;;;;;;;;;18.10;99.90;;;;;;5050518;28;20374;-24
2022/10/31 13:08:16;;;;;;;;;;;18.10;99.90;;;;;;5050239;28;20008;-24
2022/10/31 13:10:46;;;;;;;;;;;18.10;99.90;;;;;;5052634;28;19916;-24
2022/10/31 13:13:20;;;;;;;;;;;18.10;99.90;;;;;;5052067;28;20385;-24
2022/10/31 13:15:48;;;;;;;;;;;18.10;99.90;;;;;;5053745;28;19913;-24
2022/10/31 13:18:20;;;;;;;;;;;18.10;99.90;;;;;;5053427;28;20465;-24
2022/10/31 13:20:47;;;;;;;;;;;18.20;99.90;;;;;;5053822;28;19905;-24
2022/10/31 13:23:29;;;;;;;;;;;18.20;99.90;;;;;;5053377;28;19912;-24
2022/10/31 13:25:56;;;;;;;;;;;18.20;99.90;;;;;;5053779;28;19913;-24
2022/10/31 13:28:40;;;;;;;;;;;18.20;99.90;;;;;;5053638;28;19913;-24
2022/10/31 13:31:06;;;;;;;;;;;18.20;99.90;;;;;;5053567;28;20366;-24
2022/10/31 13:33:38;;;;;;;;;;;18.20;99.90;;;;;;5053338;28;19909;-24
2022/10/31 13:36:19;;;;;;;;;;;18.20;99.90;;;;;;5053592;28;19920;-24
2022/10/31 13:39:12;;;;;;;;;;;18.30;99.90;;;;;;5053995;28;19924;-24
2022/10/31 13:41:47;;;;;;;;;;;18.30;99.90;;;;;;5053337;28;19912;-24
2022/10/31 13:44:15;;;;;;;;;;;18.40;99.90;;;;;;5052440;28;20385;-24
2022/10/31 13:46:41;;;;;;;;;;;18.40;99.90;;;;;;5053114;28;19912;-24
2022/10/31 13:49:27;;;;;;;;;;;18.40;99.90;;;;;;5053170;28;19955;-24
2022/10/31 13:52:04;;;;;;;;;;;18.40;99.90;;;;;;5049272;28;19992;-24
2022/10/31 13:54:33;;;;;;;;;;;18.40;99.90;;;;;;5052874;28;19956;-24
2022/10/31 13:56:59;;;;;;;;;;;18.50;99.90;;;;;;5053169;28;20374;-24
2022/10/31 13:59:31;;;;;;;;;;;18.50;99.90;;;;;;5053007;28;19978;-24
2022/10/31 14:02:01;;;;;;;;;;;18.50;99.90;;;;;;5052842;28;19956;-24
2022/10/31 14:04:27;;;;;;;;;;;18.50;99.90;;;;;;5052628;28;19985;-24
2022/10/31 14:06:52;;;;;;;;;;;18.50;99.90;;;;;;5052879;28;20363;-24
2022/10/31 14:09:35;;;;;;;;;;;18.40;99.90;;;;;;5052828;28;19978;-24
2022/10/31 14:12:02;;;;;;;;;;;18.40;99.90;;;;;;5052934;28;19909;-24
2022/10/31 14:14:33;;;;;;;;;;;18.40;99.90;;;;;;5052462;28;19940;-24
2022/10/31 14:16:59;;;;;;;;;;;18.40;99.90;;;;;;5052743;28;20355;-24
2022/10/31 14:19:25;;;;;;;;;;;18.40;99.90;;;;;;5052888;28;20001;-24
2022/10/31 14:21:51;;;;;;;;;;;18.40;99.90;;;;;;5052240;28;20680;-24
2022/10/31 14:24:22;;;;;;;;;;;18.40;99.90;;;;;;5052264;28;19913;-24
2022/10/31 14:26:55;;;;;;;;;;;18.40;99.90;;;;;;5052615;28;20404;-24